sensor_id;sensor_type;location;lat;lon;timestamp;P1;durP1;ratioP1;P2;durP2;ratioP2
12222;SDS011;6174;49.058;8.524;2023-04-15T06:01:48;4.47;;;3.00;;
12222;SDS011;6174;49.058;8.524;2023-04-15T06:04:16;4.80;;;3.17;;
12222;SDS011;6174;49.058;8.524;2023-04-15T06:06:42;3.20;;;3.00;;
12222;SDS011;6174;49.058;8.524;2023-04-15T06:09:09;3.13;;;2.80;;
12222;SDS011;6174;49.058;8.524;2023-04-15T06:11:36;3.50;;;3.20;;
12222;SDS011;6174;49.058;8.524;2023-04-15T06:14:02;2.90;;;2.70;;
12222;SDS011;6174;49.058;8.524;2023-04-15T06:16:40;3.77;;;2.87;;
12222;SDS011;6174;49.058;8.524;2023-04-15T06:19:08;3.30;;;3.00;;
12222;SDS011;6174;49.058;8.524;2023-04-15T06:21:36;2.97;;;2.67;;
12222;SDS011;6174;49.058;8.524;2023-04-15T06:24:03;4.07;;;2.90;;
12222;SDS011;6174;49.058;8.524;2023-04-15T06:26:30;3.70;;;2.60;;
12222;SDS011;6174;49.058;8.524;2023-04-15T06:28:57;4.43;;;2.80;;
12222;SDS011;6174;49.058;8.524;2023-04-15T06:31:23;4.73;;;2.90;;
12222;SDS011;6174;49.058;8.524;2023-04-15T06:33:50;5.67;;;3.33;;
12222;SDS011;6174;49.058;8.524;2023-04-15T06:36:18;5.40;;;3.30;;
12222;SDS011;6174;49.058;8.524;2023-04-15T06:38:45;4.33;;;3.20;;
12222;SDS011;6174;49.058;8.524;2023-04-15T06:41:12;4.03;;;3.50;;
12222;SDS011;6174;49.058;8.524;2023-04-15T06:43:39;6.33;;;3.57;;
12222;SDS011;6174;49.058;8.524;2023-04-15T06:46:05;8.00;;;3.40;;
12222;SDS011;6174;49.058;8.524;2023-04-15T06:48:32;3.60;;;3.27;;
12222;SDS011;6174;49.058;8.524;2023-04-15T06:50:59;5.43;;;4.03;;
12222;SDS011;6174;49.058;8.524;2023-04-15T06:53:27;6.67;;;3.90;;
12222;SDS011;6174;49.058;8.524;2023-04-15T06:55:54;4.60;;;3.10;;
12222;SDS011;6174;49.058;8.524;2023-04-15T06:58:20;3.27;;;2.90;;
12222;SDS011;6174;49.058;8.524;2023-04-15T07:00:47;4.37;;;2.73;;
12222;SDS011;6174;49.058;8.524;2023-04-15T07:03:15;4.70;;;2.90;;
12222;SDS011;6174;49.058;8.524;2023-04-15T07:05:41;3.07;;;2.63;;
12222;SDS011;6174;49.058;8.524;2023-04-15T07:08:08;2.67;;;2.43;;
12222;SDS011;6174;49.058;8.524;2023-04-15T07:10:37;4.30;;;3.03;;
12222;SDS011;6174;49.058;8.524;2023-04-15T07:13:03;3.47;;;2.63;;
12222;SDS011;6174;49.058;8.524;2023-04-15T07:15:32;4.33;;;2.40;;
12222;SDS011;6174;49.058;8.524;2023-04-15T07:17:59;5.30;;;2.90;;
12222;SDS011;6174;49.058;8.524;2023-04-15T07:20:26;4.13;;;2.37;;
12222;SDS011;6174;49.058;8.524;2023-04-15T07:22:53;3.53;;;2.93;;
12222;SDS011;6174;49.058;8.524;2023-04-15T07:25:19;3.47;;;2.70;;
12222;SDS011;6174;49.058;8.524;2023-04-15T07:27:48;4.73;;;2.60;;
12222;SDS011;6174;49.058;8.524;2023-04-15T07:30:15;3.40;;;2.33;;
12222;SDS011;6174;49.058;8.524;2023-04-15T07:32:41;4.10;;;2.30;;
12222;SDS011;6174;49.058;8.524;2023-04-15T07:35:08;4.33;;;2.40;;
12222;SDS011;6174;49.058;8.524;2023-04-15T07:37:35;4.10;;;2.30;;
12222;SDS011;6174;49.058;8.524;2023-04-15T07:40:02;4.67;;;2.03;;
12222;SDS011;6174;49.058;8.524;2023-04-15T07:42:31;3.43;;;2.40;;
12222;SDS011;6174;49.058;8.524;2023-04-15T07:44:59;2.97;;;2.40;;
12222;SDS011;6174;49.058;8.524;2023-04-15T07:47:26;4.30;;;2.77;;
12222;SDS011;6174;49.058;8.524;2023-04-15T07:49:52;4.27;;;2.50;;
12222;SDS011;6174;49.058;8.524;2023-04-15T07:52:19;3.87;;;2.40;;
12222;SDS011;6174;49.058;8.524;2023-04-15T07:54:46;5.70;;;2.70;;
12222;SDS011;6174;49.058;8.524;2023-04-15T07:57:12;4.60;;;2.70;;
12222;SDS011;6174;49.058;8.524;2023-04-15T07:59:40;4.33;;;2.60;;
12222;SDS011;6174;49.058;8.524;2023-04-15T08:02:09;3.73;;;2.43;;
12222;SDS011;6174;49.058;8.524;2023-04-15T08:04:36;4.20;;;2.80;;
12222;SDS011;6174;49.058;8.524;2023-04-15T08:07:03;5.50;;;2.60;;
12222;SDS011;6174;49.058;8.524;2023-04-15T08:09:30;5.23;;;2.77;;
12222;SDS011;6174;49.058;8.524;2023-04-15T08:11:56;3.90;;;2.80;;
12222;SDS011;6174;49.058;8.524;2023-04-15T08:14:23;4.53;;;2.70;;
12222;SDS011;6174;49.058;8.524;2023-04-15T08:16:50;4.17;;;2.80;;
12222;SDS011;6174;49.058;8.524;2023-04-15T08:19:18;3.70;;;2.53;;
12222;SDS011;6174;49.058;8.524;2023-04-15T08:21:45;5.07;;;3.43;;
12222;SDS011;6174;49.058;8.524;2023-04-15T08:24:11;3.97;;;3.27;;
12222;SDS011;6174;49.058;8.524;2023-04-15T08:26:38;5.23;;;3.93;;
12222;SDS011;6174;49.058;8.524;2023-04-15T08:29:06;8.93;;;4.40;;
12222;SDS011;6174;49.058;8.524;2023-04-15T08:31:33;4.57;;;3.90;;
12222;SDS011;6174;49.058;8.524;2023-04-15T08:33:59;6.50;;;3.80;;
12222;SDS011;6174;49.058;8.524;2023-04-15T08:36:28;6.67;;;4.07;;
12222;SDS011;6174;49.058;8.524;2023-04-15T08:38:54;5.93;;;3.90;;
12222;SDS011;6174;49.058;8.524;2023-04-15T08:41:21;7.77;;;4.03;;
12222;SDS011;6174;49.058;8.524;2023-04-15T08:43:53;5.60;;;3.50;;
12222;SDS011;6174;49.058;8.524;2023-04-15T08:46:23;5.23;;;2.90;;
12222;SDS011;6174;49.058;8.524;2023-04-15T08:48:50;4.97;;;3.13;;
12222;SDS011;6174;49.058;8.524;2023-04-15T08:51:17;3.33;;;3.03;;
12222;SDS011;6174;49.058;8.524;2023-04-15T08:53:45;4.83;;;3.40;;
12222;SDS011;6174;49.058;8.524;2023-04-15T08:56:12;5.20;;;3.10;;
12222;SDS011;6174;49.058;8.524;2023-04-15T08:58:40;4.50;;;3.20;;
12222;SDS011;6174;49.058;8.524;2023-04-15T09:01:08;4.87;;;3.00;;
12222;SDS011;6174;49.058;8.524;2023-04-15T09:03:37;4.27;;;2.70;;
12222;SDS011;6174;49.058;8.524;2023-04-15T09:06:04;5.63;;;3.10;;
12222;SDS011;6174;49.058;8.524;2023-04-15T09:08:31;3.50;;;3.17;;
12222;SDS011;6174;49.058;8.524;2023-04-15T09:10:59;5.47;;;3.50;;
12222;SDS011;6174;49.058;8.524;2023-04-15T09:13:26;4.40;;;3.40;;
12222;SDS011;6174;49.058;8.524;2023-04-15T09:15:53;4.07;;;2.80;;
12222;SDS011;6174;49.058;8.524;2023-04-15T09:18:28;4.13;;;3.17;;
12222;SDS011;6174;49.058;8.524;2023-04-15T09:20:56;3.37;;;3.00;;
12222;SDS011;6174;49.058;8.524;2023-04-15T09:23:31;5.53;;;3.13;;
12222;SDS011;6174;49.058;8.524;2023-04-15T09:25:58;3.43;;;2.63;;
12222;SDS011;6174;49.058;8.524;2023-04-15T09:28:26;3.10;;;2.80;;
12222;SDS011;6174;49.058;8.524;2023-04-15T09:30:56;4.40;;;3.10;;
12222;SDS011;6174;49.058;8.524;2023-04-15T09:33:23;4.23;;;2.90;;
12222;SDS011;6174;49.058;8.524;2023-04-15T09:35:57;4.60;;;2.90;;
12222;SDS011;6174;49.058;8.524;2023-04-15T09:38:25;4.70;;;2.93;;
12222;SDS011;6174;49.058;8.524;2023-04-15T09:40:52;5.57;;;3.20;;
12222;SDS011;6174;49.058;8.524;2023-04-15T09:43:21;3.90;;;3.10;;
12222;SDS011;6174;49.058;8.524;2023-04-15T09:45:50;4.30;;;3.20;;
12222;SDS011;6174;49.058;8.524;2023-04-15T09:48:19;4.93;;;2.77;;
12222;SDS011;6174;49.058;8.524;2023-04-15T09:50:46;4.67;;;2.80;;
12222;SDS011;6174;49.058;8.524;2023-04-15T09:53:18;5.13;;;3.00;;
12222;SDS011;6174;49.058;8.524;2023-04-15T09:55:48;4.83;;;3.17;;
12222;SDS011;6174;49.058;8.524;2023-04-15T09:58:19;5.13;;;3.60;;
12222;SDS011;6174;49.058;8.524;2023-04-15T10:00:48;4.07;;;3.50;;
12222;SDS011;6174;49.058;8.524;2023-04-15T10:03:18;4.00;;;3.27;;
12222;SDS011;6174;49.058;8.524;2023-04-15T10:05:47;4.27;;;3.63;;
12222;SDS011;6174;49.058;8.524;2023-04-15T10:08:16;4.40;;;3.70;;
12222;SDS011;6174;49.058;8.524;2023-04-15T10:10:45;4.80;;;3.40;;
12222;SDS011;6174;49.058;8.524;2023-04-15T10:13:12;3.57;;;3.20;;
12222;SDS011;6174;49.058;8.524;2023-04-15T10:15:42;4.13;;;3.50;;
12222;SDS011;6174;49.058;8.524;2023-04-15T10:18:11;3.33;;;3.00;;
12222;SDS011;6174;49.058;8.524;2023-04-15T10:20:41;4.93;;;3.40;;
12222;SDS011;6174;49.058;8.524;2023-04-15T10:23:09;4.00;;;3.37;;
12222;SDS011;6174;49.058;8.524;2023-04-15T10:25:37;4.77;;;3.27;;
12222;SDS011;6174;49.058;8.524;2023-04-15T10:28:05;4.17;;;3.30;;
12222;SDS011;6174;49.058;8.524;2023-04-15T10:30:32;5.67;;;4.00;;
12222;SDS011;6174;49.058;8.524;2023-04-15T10:33:00;4.20;;;3.70;;
12222;SDS011;6174;49.058;8.524;2023-04-15T10:35:29;5.13;;;3.90;;
12222;SDS011;6174;49.058;8.524;2023-04-15T10:37:57;6.13;;;4.37;;
12222;SDS011;6174;49.058;8.524;2023-04-15T10:40:28;5.00;;;4.53;;
12222;SDS011;6174;49.058;8.524;2023-04-15T10:42:57;5.30;;;4.57;;
12222;SDS011;6174;49.058;8.524;2023-04-15T10:45:25;6.63;;;4.67;;
12222;SDS011;6174;49.058;8.524;2023-04-15T10:47:54;5.30;;;4.50;;
12222;SDS011;6174;49.058;8.524;2023-04-15T10:50:25;7.70;;;4.83;;
12222;SDS011;6174;49.058;8.524;2023-04-15T10:52:54;5.47;;;3.90;;
12222;SDS011;6174;49.058;8.524;2023-04-15T10:55:22;6.10;;;4.60;;
12222;SDS011;6174;49.058;8.524;2023-04-15T10:57:50;5.40;;;4.40;;
12222;SDS011;6174;49.058;8.524;2023-04-15T11:00:18;6.40;;;4.10;;
12222;SDS011;6174;49.058;8.524;2023-04-15T11:02:47;4.20;;;3.80;;
12222;SDS011;6174;49.058;8.524;2023-04-15T11:05:17;6.20;;;3.63;;
12222;SDS011;6174;49.058;8.524;2023-04-15T11:07:50;4.83;;;3.63;;
12222;SDS011;6174;49.058;8.524;2023-04-15T11:13:19;5.57;;;3.60;;
12222;SDS011;6174;49.058;8.524;2023-04-15T11:15:53;4.17;;;3.37;;
12222;SDS011;6174;49.058;8.524;2023-04-15T11:18:22;4.70;;;3.40;;
12222;SDS011;6174;49.058;8.524;2023-04-15T11:20:52;4.47;;;3.57;;
12222;SDS011;6174;49.058;8.524;2023-04-15T11:23:27;5.77;;;3.37;;
12222;SDS011;6174;49.058;8.524;2023-04-15T11:25:56;4.97;;;3.37;;
12222;SDS011;6174;49.058;8.524;2023-04-15T11:28:25;6.43;;;4.10;;
12222;SDS011;6174;49.058;8.524;2023-04-15T11:30:53;6.73;;;3.90;;
12222;SDS011;6174;49.058;8.524;2023-04-15T11:33:20;4.83;;;3.60;;
12222;SDS011;6174;49.058;8.524;2023-04-15T11:35:49;5.63;;;3.87;;
12222;SDS011;6174;49.058;8.524;2023-04-15T11:38:15;4.50;;;3.80;;
12222;SDS011;6174;49.058;8.524;2023-04-15T11:40:44;4.23;;;3.20;;
12222;SDS011;6174;49.058;8.524;2023-04-15T11:43:11;4.70;;;3.40;;
12222;SDS011;6174;49.058;8.524;2023-04-15T11:45:47;4.47;;;3.00;;
12222;SDS011;6174;49.058;8.524;2023-04-15T11:48:15;5.93;;;3.40;;
12222;SDS011;6174;49.058;8.524;2023-04-15T11:50:43;4.43;;;3.50;;
12222;SDS011;6174;49.058;8.524;2023-04-15T11:53:11;3.90;;;3.50;;
12222;SDS011;6174;49.058;8.524;2023-04-15T11:55:42;5.13;;;3.67;;
12222;SDS011;6174;49.058;8.524;2023-04-15T11:58:12;4.27;;;3.40;;
12222;SDS011;6174;49.058;8.524;2023-04-15T12:00:40;3.73;;;3.00;;
12222;SDS011;6174;49.058;8.524;2023-04-15T12:03:12;3.40;;;3.10;;
12222;SDS011;6174;49.058;8.524;2023-04-15T12:06:01;4.23;;;3.40;;
12222;SDS011;6174;49.058;8.524;2023-04-15T12:11:16;5.07;;;3.80;;
12222;SDS011;6174;49.058;8.524;2023-04-15T12:13:43;4.20;;;3.80;;
12222;SDS011;6174;49.058;8.524;2023-04-15T12:16:11;4.10;;;3.47;;
12222;SDS011;6174;49.058;8.524;2023-04-15T12:18:37;3.53;;;3.23;;
12222;SDS011;6174;49.058;8.524;2023-04-15T12:21:08;5.10;;;3.00;;
12222;SDS011;6174;49.058;8.524;2023-04-15T12:23:35;3.80;;;3.20;;
12222;SDS011;6174;49.058;8.524;2023-04-15T12:26:03;4.03;;;3.03;;
12222;SDS011;6174;49.058;8.524;2023-04-15T12:28:32;4.10;;;3.70;;
12222;SDS011;6174;49.058;8.524;2023-04-15T12:31:05;3.40;;;2.80;;
12222;SDS011;6174;49.058;8.524;2023-04-15T12:33:32;2.50;;;2.30;;
12222;SDS011;6174;49.058;8.524;2023-04-15T12:35:59;3.23;;;2.33;;
12222;SDS011;6174;49.058;8.524;2023-04-15T12:38:27;2.40;;;2.20;;
12222;SDS011;6174;49.058;8.524;2023-04-15T12:40:53;3.60;;;2.30;;
12222;SDS011;6174;49.058;8.524;2023-04-15T12:43:20;5.10;;;3.53;;
12222;SDS011;6174;49.058;8.524;2023-04-15T12:45:48;4.10;;;2.10;;
12222;SDS011;6174;49.058;8.524;2023-04-15T12:48:15;4.50;;;2.30;;
12222;SDS011;6174;49.058;8.524;2023-04-15T12:50:42;4.77;;;2.23;;
12222;SDS011;6174;49.058;8.524;2023-04-15T12:53:09;2.90;;;2.30;;
12222;SDS011;6174;49.058;8.524;2023-04-15T12:55:35;2.83;;;2.50;;
12222;SDS011;6174;49.058;8.524;2023-04-15T12:58:02;3.20;;;2.50;;
12222;SDS011;6174;49.058;8.524;2023-04-15T13:00:29;2.27;;;2.07;;
12222;SDS011;6174;49.058;8.524;2023-04-15T13:02:59;2.57;;;2.37;;
12222;SDS011;6174;49.058;8.524;2023-04-15T13:05:26;3.57;;;2.27;;
12222;SDS011;6174;49.058;8.524;2023-04-15T13:07:53;3.97;;;2.47;;
12222;SDS011;6174;49.058;8.524;2023-04-15T13:10:20;3.27;;;2.40;;
12222;SDS011;6174;49.058;8.524;2023-04-15T13:12:47;2.73;;;2.40;;
12222;SDS011;6174;49.058;8.524;2023-04-15T13:15:17;4.93;;;2.93;;
12222;SDS011;6174;49.058;8.524;2023-04-15T13:17:45;3.83;;;2.43;;
12222;SDS011;6174;49.058;8.524;2023-04-15T13:20:13;7.37;;;3.53;;
12222;SDS011;6174;49.058;8.524;2023-04-15T13:22:40;4.60;;;3.00;;
12222;SDS011;6174;49.058;8.524;2023-04-15T13:25:07;4.73;;;2.97;;
12222;SDS011;6174;49.058;8.524;2023-04-15T13:27:34;16.57;;;5.23;;
12222;SDS011;6174;49.058;8.524;2023-04-15T13:30:01;4.90;;;2.80;;
12222;SDS011;6174;49.058;8.524;2023-04-15T13:32:28;4.20;;;2.57;;
12222;SDS011;6174;49.058;8.524;2023-04-15T13:34:55;3.63;;;2.43;;
12222;SDS011;6174;49.058;8.524;2023-04-15T13:37:26;7.60;;;3.50;;
12222;SDS011;6174;49.058;8.524;2023-04-15T13:39:52;20.23;;;5.40;;
12222;SDS011;6174;49.058;8.524;2023-04-15T13:42:20;53.60;;;12.00;;
12222;SDS011;6174;49.058;8.524;2023-04-15T13:44:46;16.60;;;4.90;;
12222;SDS011;6174;49.058;8.524;2023-04-15T13:47:14;13.10;;;4.63;;
12222;SDS011;6174;49.058;8.524;2023-04-15T13:49:41;16.53;;;5.87;;
12222;SDS011;6174;49.058;8.524;2023-04-15T13:52:09;5.37;;;3.13;;
12222;SDS011;6174;49.058;8.524;2023-04-15T13:54:37;15.80;;;4.53;;
12222;SDS011;6174;49.058;8.524;2023-04-15T13:57:04;7.30;;;3.53;;
12222;SDS011;6174;49.058;8.524;2023-04-15T13:59:31;3.67;;;2.60;;
12222;SDS011;6174;49.058;8.524;2023-04-15T14:01:58;3.47;;;2.40;;
12222;SDS011;6174;49.058;8.524;2023-04-15T14:04:25;3.13;;;2.30;;
12222;SDS011;6174;49.058;8.524;2023-04-15T14:06:52;2.30;;;2.10;;
12222;SDS011;6174;49.058;8.524;2023-04-15T14:09:18;3.20;;;2.30;;
12222;SDS011;6174;49.058;8.524;2023-04-15T14:11:47;4.27;;;2.17;;
12222;SDS011;6174;49.058;8.524;2023-04-15T14:14:14;3.37;;;2.33;;
12222;SDS011;6174;49.058;8.524;2023-04-15T14:16:41;2.50;;;2.30;;
12222;SDS011;6174;49.058;8.524;2023-04-15T14:19:07;4.03;;;2.43;;
12222;SDS011;6174;49.058;8.524;2023-04-15T14:21:34;4.10;;;2.30;;
12222;SDS011;6174;49.058;8.524;2023-04-15T14:24:01;5.10;;;2.53;;
12222;SDS011;6174;49.058;8.524;2023-04-15T14:26:28;2.50;;;2.30;;
12222;SDS011;6174;49.058;8.524;2023-04-15T14:28:56;2.77;;;2.00;;
12222;SDS011;6174;49.058;8.524;2023-04-15T14:31:23;2.17;;;1.97;;
12222;SDS011;6174;49.058;8.524;2023-04-15T14:33:49;2.40;;;1.83;;
12222;SDS011;6174;49.058;8.524;2023-04-15T14:36:16;2.80;;;1.60;;
12222;SDS011;6174;49.058;8.524;2023-04-15T14:38:43;3.43;;;1.83;;
12222;SDS011;6174;49.058;8.524;2023-04-15T14:41:09;2.37;;;1.83;;
12222;SDS011;6174;49.058;8.524;2023-04-15T14:43:36;2.93;;;1.50;;
12222;SDS011;6174;49.058;8.524;2023-04-15T14:46:04;2.40;;;2.17;;
12222;SDS011;6174;49.058;8.524;2023-04-15T14:48:32;1.60;;;1.50;;
12222;SDS011;6174;49.058;8.524;2023-04-15T14:50:59;1.87;;;1.63;;
12222;SDS011;6174;49.058;8.524;2023-04-15T14:53:26;3.17;;;1.57;;
12222;SDS011;6174;49.058;8.524;2023-04-15T14:55:53;1.70;;;1.60;;
12222;SDS011;6174;49.058;8.524;2023-04-15T14:58:19;1.83;;;1.40;;
12222;SDS011;6174;49.058;8.524;2023-04-15T15:00:46;1.43;;;1.10;;
12222;SDS011;6174;49.058;8.524;2023-04-15T15:03:14;3.70;;;1.37;;
12222;SDS011;6174;49.058;8.524;2023-04-15T15:05:42;1.63;;;1.17;;
12222;SDS011;6174;49.058;8.524;2023-04-15T15:08:11;3.27;;;1.27;;
12222;SDS011;6174;49.058;8.524;2023-04-15T15:10:38;2.47;;;1.30;;
12222;SDS011;6174;49.058;8.524;2023-04-15T15:13:06;4.10;;;1.80;;
12222;SDS011;6174;49.058;8.524;2023-04-15T15:15:34;2.73;;;1.10;;
12222;SDS011;6174;49.058;8.524;2023-04-15T15:18:02;2.10;;;1.17;;
12222;SDS011;6174;49.058;8.524;2023-04-15T15:20:30;1.20;;;1.10;;
12222;SDS011;6174;49.058;8.524;2023-04-15T15:22:59;2.13;;;0.97;;
12222;SDS011;6174;49.058;8.524;2023-04-15T15:25:26;2.27;;;1.10;;
12222;SDS011;6174;49.058;8.524;2023-04-15T15:27:53;1.03;;;0.93;;
12222;SDS011;6174;49.058;8.524;2023-04-15T15:30:20;0.97;;;0.97;;
12222;SDS011;6174;49.058;8.524;2023-04-15T15:32:46;1.53;;;1.00;;
12222;SDS011;6174;49.058;8.524;2023-04-15T15:35:13;1.40;;;1.07;;
12222;SDS011;6174;49.058;8.524;2023-04-15T15:37:41;1.43;;;1.20;;
12222;SDS011;6174;49.058;8.524;2023-04-15T15:40:08;0.97;;;0.80;;
12222;SDS011;6174;49.058;8.524;2023-04-15T15:42:36;2.77;;;1.07;;
12222;SDS011;6174;49.058;8.524;2023-04-15T15:45:03;1.23;;;1.20;;
12222;SDS011;6174;49.058;8.524;2023-04-15T15:47:30;1.47;;;1.07;;
12222;SDS011;6174;49.058;8.524;2023-04-15T15:49:57;2.83;;;1.30;;
12222;SDS011;6174;49.058;8.524;2023-04-15T15:52:24;3.30;;;1.43;;
12222;SDS011;6174;49.058;8.524;2023-04-15T15:54:52;3.13;;;1.30;;
12222;SDS011;6174;49.058;8.524;2023-04-15T15:57:19;1.57;;;1.47;;
12222;SDS011;6174;49.058;8.524;2023-04-15T15:59:46;1.30;;;1.20;;
12222;SDS011;6174;49.058;8.524;2023-04-15T16:02:13;1.40;;;1.30;;
12222;SDS011;6174;49.058;8.524;2023-04-15T16:04:40;2.30;;;1.60;;
12222;SDS011;6174;49.058;8.524;2023-04-15T16:07:07;3.10;;;1.50;;
12222;SDS011;6174;49.058;8.524;2023-04-15T16:09:34;2.03;;;1.60;;
12222;SDS011;6174;49.058;8.524;2023-04-15T16:12:03;1.70;;;1.60;;
12222;SDS011;6174;49.058;8.524;2023-04-15T16:14:29;1.63;;;1.53;;
12222;SDS011;6174;49.058;8.524;2023-04-15T16:16:56;1.20;;;1.10;;
12222;SDS011;6174;49.058;8.524;2023-04-15T16:19:23;1.37;;;1.27;;
12222;SDS011;6174;49.058;8.524;2023-04-15T16:21:50;2.13;;;1.40;;
12222;SDS011;6174;49.058;8.524;2023-04-15T16:24:16;1.60;;;1.50;;
12222;SDS011;6174;49.058;8.524;2023-04-15T16:26:43;1.60;;;1.50;;
12222;SDS011;6174;49.058;8.524;2023-04-15T16:29:11;1.43;;;1.30;;
12222;SDS011;6174;49.058;8.524;2023-04-15T16:31:38;2.83;;;1.60;;
12222;SDS011;6174;49.058;8.524;2023-04-15T16:34:05;1.83;;;1.50;;
12222;SDS011;6174;49.058;8.524;2023-04-15T16:36:32;1.57;;;1.47;;
12222;SDS011;6174;49.058;8.524;2023-04-15T16:39:00;1.70;;;1.60;;
12222;SDS011;6174;49.058;8.524;2023-04-15T16:41:26;1.70;;;1.60;;
12222;SDS011;6174;49.058;8.524;2023-04-15T16:43:53;2.97;;;1.93;;
12222;SDS011;6174;49.058;8.524;2023-04-15T16:46:23;1.77;;;1.67;;
12222;SDS011;6174;49.058;8.524;2023-04-15T16:48:49;1.70;;;1.60;;
12222;SDS011;6174;49.058;8.524;2023-04-15T16:51:16;1.73;;;1.57;;
12222;SDS011;6174;49.058;8.524;2023-04-15T16:53:43;1.80;;;1.70;;
12222;SDS011;6174;49.058;8.524;2023-04-15T16:56:10;1.90;;;1.80;;
12222;SDS011;6174;49.058;8.524;2023-04-15T16:58:36;1.77;;;1.67;;
12222;SDS011;6174;49.058;8.524;2023-04-15T17:01:03;2.10;;;1.90;;
12222;SDS011;6174;49.058;8.524;2023-04-15T17:03:31;2.23;;;1.80;;
12222;SDS011;6174;49.058;8.524;2023-04-15T17:05:58;2.70;;;1.90;;
12222;SDS011;6174;49.058;8.524;2023-04-15T17:08:25;2.20;;;2.10;;
12222;SDS011;6174;49.058;8.524;2023-04-15T17:10:51;2.00;;;1.90;;
12222;SDS011;6174;49.058;8.524;2023-04-15T17:13:19;2.60;;;2.40;;
12222;SDS011;6174;49.058;8.524;2023-04-15T17:15:45;3.27;;;3.00;;
12222;SDS011;6174;49.058;8.524;2023-04-15T17:18:12;2.43;;;2.23;;
12222;SDS011;6174;49.058;8.524;2023-04-15T17:20:41;2.17;;;1.97;;
12222;SDS011;6174;49.058;8.524;2023-04-15T17:23:08;2.40;;;2.20;;
12222;SDS011;6174;49.058;8.524;2023-04-15T17:25:36;2.27;;;2.07;;
12222;SDS011;6174;49.058;8.524;2023-04-15T17:28:02;2.87;;;2.30;;
12222;SDS011;6174;49.058;8.524;2023-04-15T17:30:29;2.53;;;2.30;;
12222;SDS011;6174;49.058;8.524;2023-04-15T17:32:57;2.90;;;2.60;;
12222;SDS011;6174;49.058;8.524;2023-04-15T17:35:24;3.03;;;2.83;;
12222;SDS011;6174;49.058;8.524;2023-04-15T17:37:52;2.90;;;2.70;;
12222;SDS011;6174;49.058;8.524;2023-04-15T17:40:19;3.03;;;2.73;;
12222;SDS011;6174;49.058;8.524;2023-04-15T17:42:46;2.97;;;2.67;;
12222;SDS011;6174;49.058;8.524;2023-04-15T17:45:13;2.90;;;2.37;;
12222;SDS011;6174;49.058;8.524;2023-04-15T17:47:40;3.43;;;2.57;;
12222;SDS011;6174;49.058;8.524;2023-04-15T17:50:07;2.90;;;2.70;;
12222;SDS011;6174;49.058;8.524;2023-04-15T17:52:34;2.80;;;2.60;;
12222;SDS011;6174;49.058;8.524;2023-04-15T17:55:02;3.10;;;2.37;;
12222;SDS011;6174;49.058;8.524;2023-04-15T17:57:29;2.60;;;2.40;;
12222;SDS011;6174;49.058;8.524;2023-04-15T17:59:56;2.67;;;2.47;;
12222;SDS011;6174;49.058;8.524;2023-04-15T18:02:23;3.00;;;2.70;;
12222;SDS011;6174;49.058;8.524;2023-04-15T18:04:49;2.30;;;2.20;;
12222;SDS011;6174;49.058;8.524;2023-04-15T18:07:16;2.40;;;2.20;;
12222;SDS011;6174;49.058;8.524;2023-04-15T18:09:43;3.33;;;2.30;;
12222;SDS011;6174;49.058;8.524;2023-04-15T18:12:11;2.63;;;2.50;;
12222;SDS011;6174;49.058;8.524;2023-04-15T18:14:38;2.80;;;2.57;;
12222;SDS011;6174;49.058;8.524;2023-04-15T18:17:04;3.10;;;2.80;;
12222;SDS011;6174;49.058;8.524;2023-04-15T18:19:32;3.00;;;2.80;;
12222;SDS011;6174;49.058;8.524;2023-04-15T18:21:59;3.80;;;3.50;;
12222;SDS011;6174;49.058;8.524;2023-04-15T18:24:27;3.43;;;3.20;;
12222;SDS011;6174;49.058;8.524;2023-04-15T18:26:54;23.17;;;19.60;;
12222;SDS011;6174;49.058;8.524;2023-04-15T18:29:22;9.07;;;8.20;;
12222;SDS011;6174;49.058;8.524;2023-04-15T18:31:49;8.67;;;7.87;;
12222;SDS011;6174;49.058;8.524;2023-04-15T18:34:16;6.13;;;5.63;;
12222;SDS011;6174;49.058;8.524;2023-04-15T18:36:43;9.83;;;8.87;;
12222;SDS011;6174;49.058;8.524;2023-04-15T18:39:09;6.97;;;6.37;;
12222;SDS011;6174;49.058;8.524;2023-04-15T18:41:36;10.43;;;9.53;;
12222;SDS011;6174;49.058;8.524;2023-04-15T18:44:03;8.53;;;7.83;;
12222;SDS011;6174;49.058;8.524;2023-04-15T18:46:32;11.97;;;10.97;;
12222;SDS011;6174;49.058;8.524;2023-04-15T18:48:59;20.03;;;18.13;;
12222;SDS011;6174;49.058;8.524;2023-04-15T18:51:26;10.07;;;9.17;;
12222;SDS011;6174;49.058;8.524;2023-04-15T18:53:53;9.60;;;8.80;;
12222;SDS011;6174;49.058;8.524;2023-04-15T18:56:19;13.20;;;12.10;;
12222;SDS011;6174;49.058;8.524;2023-04-15T18:58:46;10.37;;;9.50;;
12222;SDS011;6174;49.058;8.524;2023-04-15T19:01:13;9.77;;;8.97;;
12222;SDS011;6174;49.058;8.524;2023-04-15T19:03:41;6.70;;;6.20;;
12222;SDS011;6174;49.058;8.524;2023-04-15T19:06:08;5.30;;;4.90;;
12222;SDS011;6174;49.058;8.524;2023-04-15T19:08:35;4.40;;;4.10;;
12222;SDS011;6174;49.058;8.524;2023-04-15T19:11:02;6.43;;;5.83;;
12222;SDS011;6174;49.058;8.524;2023-04-15T19:13:28;5.23;;;4.83;;
12222;SDS011;6174;49.058;8.524;2023-04-15T19:15:55;4.23;;;3.93;;
12222;SDS011;6174;49.058;8.524;2023-04-15T19:18:22;4.10;;;3.80;;
12222;SDS011;6174;49.058;8.524;2023-04-15T19:20:50;4.40;;;4.10;;
12222;SDS011;6174;49.058;8.524;2023-04-15T19:23:19;4.67;;;4.23;;
12222;SDS011;6174;49.058;8.524;2023-04-15T19:25:46;4.83;;;4.43;;
12222;SDS011;6174;49.058;8.524;2023-04-15T19:28:13;4.53;;;4.13;;
12222;SDS011;6174;49.058;8.524;2023-04-15T19:30:40;5.10;;;4.60;;
12222;SDS011;6174;49.058;8.524;2023-04-15T19:33:06;5.20;;;4.70;;
12222;SDS011;6174;49.058;8.524;2023-04-15T19:35:33;7.53;;;6.70;;
12222;SDS011;6174;49.058;8.524;2023-04-15T19:38:03;9.10;;;7.63;;
12222;SDS011;6174;49.058;8.524;2023-04-15T19:40:30;6.10;;;5.60;;
12222;SDS011;6174;49.058;8.524;2023-04-15T19:42:57;7.50;;;6.77;;
12222;SDS011;6174;49.058;8.524;2023-04-15T19:45:23;6.00;;;5.50;;
12222;SDS011;6174;49.058;8.524;2023-04-15T19:47:50;5.00;;;4.60;;
12222;SDS011;6174;49.058;8.524;2023-04-15T19:50:18;5.27;;;4.87;;
12222;SDS011;6174;49.058;8.524;2023-04-15T19:52:49;4.67;;;4.27;;
12222;SDS011;6174;49.058;8.524;2023-04-15T19:55:17;4.97;;;4.63;;
12222;SDS011;6174;49.058;8.524;2023-04-15T19:57:45;4.60;;;4.30;;
12222;SDS011;6174;49.058;8.524;2023-04-15T20:00:12;4.67;;;4.27;;
12222;SDS011;6174;49.058;8.524;2023-04-15T20:02:38;4.13;;;3.80;;
12222;SDS011;6174;49.058;8.524;2023-04-15T20:05:05;4.40;;;4.00;;
12222;SDS011;6174;49.058;8.524;2023-04-15T20:07:33;4.20;;;3.90;;
12222;SDS011;6174;49.058;8.524;2023-04-15T20:10:00;4.60;;;4.20;;
12222;SDS011;6174;49.058;8.524;2023-04-15T20:12:28;4.67;;;4.27;;
12222;SDS011;6174;49.058;8.524;2023-04-15T20:14:55;4.80;;;4.40;;
12222;SDS011;6174;49.058;8.524;2023-04-15T20:17:22;4.30;;;4.00;;
12222;SDS011;6174;49.058;8.524;2023-04-15T20:19:48;4.97;;;4.57;;
12222;SDS011;6174;49.058;8.524;2023-04-15T20:22:15;5.30;;;4.90;;
12222;SDS011;6174;49.058;8.524;2023-04-15T20:24:42;4.67;;;4.37;;
12222;SDS011;6174;49.058;8.524;2023-04-15T20:27:08;5.27;;;4.87;;
12222;SDS011;6174;49.058;8.524;2023-04-15T20:29:36;5.60;;;5.20;;
12222;SDS011;6174;49.058;8.524;2023-04-15T20:32:03;5.30;;;4.90;;
12222;SDS011;6174;49.058;8.524;2023-04-15T20:34:30;5.90;;;5.40;;
12222;SDS011;6174;49.058;8.524;2023-04-15T20:36:57;5.30;;;4.90;;
12222;SDS011;6174;49.058;8.524;2023-04-15T20:39:24;6.40;;;5.80;;
12222;SDS011;6174;49.058;8.524;2023-04-15T20:41:51;6.50;;;6.00;;
12222;SDS011;6174;49.058;8.524;2023-04-15T20:44:18;6.17;;;5.67;;
12222;SDS011;6174;49.058;8.524;2023-04-15T20:46:46;6.20;;;5.77;;
12222;SDS011;6174;49.058;8.524;2023-04-15T20:49:12;6.97;;;6.37;;
12222;SDS011;6174;49.058;8.524;2023-04-15T20:51:39;7.40;;;6.80;;
12222;SDS011;6174;49.058;8.524;2023-04-15T20:54:06;6.90;;;6.33;;
12222;SDS011;6174;49.058;8.524;2023-04-15T20:56:33;6.70;;;6.20;;
12222;SDS011;6174;49.058;8.524;2023-04-15T20:58:59;6.40;;;5.90;;
12222;SDS011;6174;49.058;8.524;2023-04-15T21:01:26;7.23;;;6.63;;
12222;SDS011;6174;49.058;8.524;2023-04-15T21:03:54;6.93;;;6.33;;
12222;SDS011;6174;49.058;8.524;2023-04-15T21:06:21;6.50;;;5.93;;
12222;SDS011;6174;49.058;8.524;2023-04-15T21:08:48;6.30;;;5.80;;